SBBQSBBH

Guest
Details From SBBQ - MAJOR BRIGADEIRO DOORGAL BORGES
To SBBH - Pampulha
Flight Number -
Tags generated
Created
Modified
Stats Distance 86 nm / 159 km
Max Altitude 0 ft / 0 m
Waypoints 3
Social Downloads 0
Likes 0
Share VATSIM

Download

Looking for another format? Having issues loading an existing format? Contact us
Advertisement - Login to hide

Notes

Basic altitude profile: - Ascent Rate: 2500ft/min - Ascent Speed: 250kts - Cruise Altitude: 35000ft - Cruise Speed: 420kts - Descent Rate: 1500ft/min - Descent Speed: 250kts Options: - Use NATs: no - Use PACOTS: no - Use low airways: yes - Use high airways: no

Route

SBBQ BHZ SBBH

ID Type Via Altitude Latitude Longitude Leg Dist Tot Dist Heading (true) Name
O SBBQ APT - 0 ft / 0 m -21.26717˚ -43.76104˚ - 0 nm - MAJOR BRIGADEIRO DOORGAL BORGES
BHZ NDB - 0 ft / 0 m -19.85333˚ -43.95467˚ 85 nm 85 nm 353° / 353° BELO HORIZONTE NDB
O SBBH APT - 0 ft / 0 m -19.85118˚ -43.95063˚ 0 nm 85 nm 60° / 60° Pampulha

Altitude Profile

Advertisement - Login to hide

SBBQ

Details ICAO SBBQ
Name MAJOR BRIGADEIRO DOORGAL BORGES
Region Brazil
Timezone America/Sao_Paulo (UTC-2.0)
Stats Elevation 3,657 ft / 1,115 m (AMSL)
Location -21.267166° -43.761041°
Runways 1
Magnetic Variation 22.753° W

METAR

SBBQ 151600Z 36004KT 9999 BKN047 26/15 Q1020

Decode

TAF

Not found

Departure Runways

ID Width Length Bearing (true) Bearing (mag) Surface Threshold Offset Overrun Length
18 98 ft / 30 m 5,810 ft / 1,771 m 162.30° 185.05° Asphalt 0 ft / 0 m 0 ft / 0 m
36 98 ft / 30 m 5,810 ft / 1,771 m 342.30° 5.05° Asphalt 0 ft / 0 m 0 ft / 0 m

SBBH

Details ICAO SBBH (PLU)
Name Pampulha
Region Brazil
Timezone America/Sao_Paulo (UTC-2.0)
Stats Elevation 2,589 ft / 789 m (AMSL)
Location -19.851179° -43.950626°
Runways 1
Magnetic Variation 22.798° W

METAR

SBBH 151600Z 30005KT 9999 BKN030 SCT050 27/17 Q1017

Decode

TAF

Not found

Destination Runways

ID Width Length Bearing (true) Bearing (mag) Surface Threshold Offset Overrun Length
13 148 ft / 45 m 8,214 ft / 2,504 m 110.63° 133.43° Asphalt 0 ft / 0 m 200 ft / 61 m
31 148 ft / 45 m 8,214 ft / 2,504 m 290.62° 313.42° Asphalt 0 ft / 0 m 200 ft / 61 m